createdAt,value
2018-04-28T00:00:02.895Z,5.13
2018-04-28T00:02:31.288Z,4.00
2018-04-28T00:04:59.623Z,4.87
2018-04-28T00:07:27.851Z,5.30
2018-04-28T00:09:56.076Z,7.03
2018-04-28T00:12:24.302Z,4.20
2018-04-28T00:14:52.543Z,4.53
2018-04-28T00:17:20.784Z,4.13
2018-04-28T00:19:49.691Z,5.13
2018-04-28T00:22:23.317Z,4.53
2018-04-28T00:24:54.847Z,4.30
2018-04-28T00:30:40.969Z,4.77
2018-04-28T00:33:11.111Z,5.23
2018-04-28T00:35:39.339Z,4.90
2018-04-28T00:38:07.571Z,3.63
2018-04-28T00:40:38.673Z,4.20
2018-04-28T00:43:06.906Z,3.40
2018-04-28T00:45:36.878Z,4.00
2018-04-28T00:48:14.666Z,4.57
2018-04-28T00:50:52.627Z,4.83
2018-04-28T00:53:25.570Z,3.53
2018-04-28T00:55:53.835Z,3.53
2018-04-28T01:01:41.829Z,3.40
2018-04-28T01:04:29.776Z,5.47
2018-04-28T01:06:57.991Z,5.23
2018-04-28T01:09:26.501Z,4.40
2018-04-28T01:11:54.715Z,2.73
2018-04-28T01:14:43.351Z,5.07
2018-04-28T01:17:27.269Z,4.10
2018-04-28T01:20:05.970Z,3.57
2018-04-28T01:22:35.860Z,3.60
2018-04-28T01:25:06.714Z,3.67
2018-04-28T01:27:49.810Z,3.90
2018-04-28T01:33:18.333Z,4.13
2018-04-28T01:35:51.991Z,3.50
2018-04-28T01:38:23.667Z,3.97
2018-04-28T01:40:52.678Z,3.70
2018-04-28T01:43:35.358Z,4.97
2018-04-28T01:46:25.023Z,3.90
2018-04-28T01:48:55.986Z,2.87
2018-04-28T01:51:30.571Z,3.97
2018-04-28T01:57:14.330Z,4.30
2018-04-28T01:59:49.355Z,2.83
2018-04-28T02:02:18.255Z,3.57
2018-04-28T02:04:53.107Z,2.87
2018-04-28T02:07:21.326Z,3.07
2018-04-28T02:09:52.477Z,2.80
2018-04-28T02:12:26.310Z,4.10
2018-04-28T02:14:56.438Z,2.67
2018-04-28T02:17:24.656Z,3.10
2018-04-28T02:20:08.639Z,3.80
2018-04-28T02:22:53.490Z,4.63
2018-04-28T02:25:37.290Z,3.63
2018-04-28T02:28:13.170Z,3.77
2018-04-28T02:30:42.929Z,3.37
2018-04-28T02:33:11.143Z,3.07
2018-04-28T02:35:43.780Z,3.30
2018-04-28T02:38:12.896Z,2.97
2018-04-28T02:40:42.697Z,2.77
2018-04-28T02:43:12.312Z,2.43
2018-04-28T02:46:03.399Z,4.27
2018-04-28T02:48:55.073Z,2.03
2018-04-28T02:54:35.407Z,3.40
2018-04-28T02:57:17.263Z,4.27
2018-04-28T02:59:55.656Z,2.47
2018-04-28T03:02:35.347Z,4.30
2018-04-28T03:05:09.438Z,3.47
2018-04-28T03:07:40.263Z,2.97
2018-04-28T03:10:09.130Z,3.17
2018-04-28T03:12:37.135Z,2.77
2018-04-28T03:15:05.223Z,3.33
2018-04-28T03:17:37.131Z,3.57
2018-04-28T03:20:05.816Z,3.87
2018-04-28T03:22:34.587Z,2.93
2018-04-28T03:25:10.135Z,3.50
2018-04-28T03:30:42.015Z,3.30
2018-04-28T03:33:19.586Z,3.37
2018-04-28T03:35:49.367Z,2.57
2018-04-28T03:38:18.271Z,2.70
2018-04-28T03:40:50.046Z,3.60
2018-04-28T03:43:31.757Z,2.43
2018-04-28T03:46:05.283Z,2.40
2018-04-28T03:48:34.555Z,2.60
2018-04-28T03:51:23.786Z,2.60
2018-04-28T03:53:54.187Z,3.30
2018-04-28T03:56:22.951Z,2.70
2018-04-28T03:59:02.670Z,2.23
2018-04-28T04:01:42.253Z,2.03
2018-04-28T04:04:13.758Z,2.07
2018-04-28T04:06:52.306Z,3.67
2018-04-28T04:09:22.214Z,3.93
2018-04-28T04:12:11.891Z,3.37
2018-04-28T04:14:58.406Z,2.67
2018-04-28T04:17:33.817Z,2.93
2018-04-28T04:20:01.815Z,2.50
2018-04-28T04:22:36.395Z,2.87
2018-04-28T04:25:08.199Z,2.97
2018-04-28T04:27:51.174Z,2.50
2018-04-28T04:33:35.862Z,3.17
2018-04-28T04:36:20.518Z,2.83
2018-04-28T04:38:49.267Z,2.30
2018-04-28T04:41:21.825Z,2.30
2018-04-28T04:44:08.506Z,3.30
2018-04-28T04:46:44.158Z,2.47
2018-04-28T04:49:16.726Z,2.57
2018-04-28T04:51:55.067Z,2.13
2018-04-28T04:54:29.723Z,2.83
2018-04-28T04:57:06.271Z,2.83
2018-04-28T04:59:52.534Z,2.67
2018-04-28T05:02:42.108Z,2.40
2018-04-28T05:05:21.788Z,2.40
2018-04-28T05:07:56.379Z,2.80
2018-04-28T05:10:26.785Z,2.47
2018-04-28T05:13:03.580Z,2.67
2018-04-28T05:15:54.960Z,2.47
2018-04-28T05:18:29.567Z,2.57
2018-04-28T05:21:00.367Z,2.33
2018-04-28T05:23:49.855Z,2.67
2018-04-28T05:26:23.718Z,2.17
2018-04-28T05:29:04.363Z,1.97
2018-04-28T05:35:02.763Z,2.57
2018-04-28T05:37:37.463Z,3.23
2018-04-28T05:40:11.012Z,2.43
2018-04-28T05:43:00.575Z,1.83
2018-04-28T05:45:38.102Z,2.23
2018-04-28T05:48:23.613Z,2.47
2018-04-28T05:51:15.339Z,2.40
2018-04-28T05:57:14.465Z,5.60
2018-04-28T06:03:09.118Z,7.87
2018-04-28T06:05:45.790Z,7.50
2018-04-28T06:08:34.639Z,6.77
2018-04-28T06:11:13.545Z,8.17
2018-04-28T06:13:53.310Z,4.53
2018-04-28T06:16:43.717Z,5.77
2018-04-28T06:19:45.090Z,8.27
2018-04-28T06:22:13.109Z,5.27
2018-04-28T06:24:41.418Z,6.27
2018-04-28T06:27:09.486Z,6.80
2018-04-28T06:29:38.482Z,29.10
2018-04-28T06:32:06.467Z,51.13
2018-04-28T06:34:35.239Z,42.20
2018-04-28T06:37:03.227Z,38.30
2018-04-28T06:39:32.073Z,37.33
2018-04-28T06:42:00.067Z,31.27
2018-04-28T06:44:28.079Z,29.27
2018-04-28T06:46:56.078Z,31.30
2018-04-28T06:49:24.287Z,95.17
2018-04-28T06:51:52.276Z,241.13
2018-04-28T06:54:21.061Z,258.50
2018-04-28T06:56:49.068Z,240.63
2018-04-28T06:59:17.060Z,182.63
2018-04-28T07:01:45.126Z,167.70
2018-04-28T07:04:13.134Z,209.03
2018-04-28T07:06:41.271Z,183.30
2018-04-28T07:09:09.354Z,195.27
2018-04-28T07:11:37.347Z,195.13
2018-04-28T07:14:05.543Z,182.50
2018-04-28T07:16:33.547Z,181.57
2018-04-28T07:22:04.203Z,175.63
2018-04-28T07:24:32.215Z,170.10
2018-04-28T07:27:00.970Z,140.33
2018-04-28T07:29:29.979Z,150.43
2018-04-28T07:31:57.974Z,147.63
2018-04-28T07:34:25.986Z,116.63
2018-04-28T07:36:54.064Z,128.33
2018-04-28T07:39:22.071Z,117.37
2018-04-28T07:41:50.071Z,126.20
2018-04-28T07:44:18.103Z,119.00
2018-04-28T07:46:46.091Z,123.80
2018-04-28T07:49:14.862Z,110.30
2018-04-28T07:51:42.846Z,99.53
2018-04-28T07:54:11.642Z,80.13
2018-04-28T07:56:39.884Z,85.83
2018-04-28T07:59:08.062Z,63.40
2018-04-28T08:01:37.055Z,101.53
2018-04-28T08:04:05.942Z,151.60
2018-04-28T08:06:34.117Z,167.93
2018-04-28T08:09:02.111Z,158.00
2018-04-28T08:11:31.070Z,149.67
2018-04-28T08:13:59.741Z,118.37
2018-04-28T08:16:29.651Z,111.03
2018-04-28T08:18:58.338Z,100.87
2018-04-28T08:21:27.330Z,76.70
2018-04-28T08:23:56.151Z,77.53
2018-04-28T08:26:24.159Z,74.80
2018-04-28T08:28:52.142Z,70.83
2018-04-28T08:31:20.163Z,61.83
2018-04-28T08:33:48.142Z,56.70
2018-04-28T08:36:16.157Z,74.83
2018-04-28T08:38:44.203Z,152.10
2018-04-28T08:41:12.236Z,143.63
2018-04-28T08:43:40.223Z,129.33
2018-04-28T08:46:08.410Z,102.17
2018-04-28T08:48:37.167Z,125.10
2018-04-28T08:51:05.237Z,117.50
2018-04-28T08:53:33.173Z,116.80
2018-04-28T08:56:01.378Z,116.23
2018-04-28T08:58:29.363Z,134.30
2018-04-28T09:01:01.925Z,150.83
2018-04-28T09:03:29.999Z,128.90
2018-04-28T09:05:58.274Z,130.00
2018-04-28T09:08:26.262Z,129.50
2018-04-28T09:10:54.514Z,135.37
2018-04-28T09:13:22.799Z,214.20
2018-04-28T09:15:51.102Z,201.43
2018-04-28T09:18:19.424Z,173.47
2018-04-28T09:20:47.858Z,162.77
2018-04-28T09:23:16.173Z,134.70
2018-04-28T09:25:44.430Z,106.23
2018-04-28T09:28:12.759Z,108.20
2018-04-28T09:30:41.031Z,68.23
2018-04-28T09:33:09.255Z,73.23
2018-04-28T09:35:37.499Z,58.10
2018-04-28T09:38:05.866Z,56.63
2018-04-28T09:40:34.346Z,51.63
2018-04-28T09:43:02.582Z,42.77
2018-04-28T09:45:30.992Z,41.87
2018-04-28T09:47:59.486Z,40.57
2018-04-28T09:50:28.960Z,37.07
2018-04-28T09:52:57.944Z,32.63
2018-04-28T09:55:26.555Z,31.37
2018-04-28T09:58:07.578Z,31.83
2018-04-28T10:00:56.662Z,26.63
2018-04-28T10:03:30.675Z,45.40
2018-04-28T10:05:59.092Z,52.57
2018-04-28T10:08:27.267Z,53.47
2018-04-28T10:10:55.499Z,141.67
2018-04-28T10:13:23.750Z,119.60
2018-04-28T10:15:52.063Z,102.20
2018-04-28T10:18:20.398Z,95.57
2018-04-28T10:20:48.626Z,92.17
2018-04-28T10:23:17.674Z,73.13
2018-04-28T10:25:45.895Z,69.20
2018-04-28T10:28:14.233Z,59.23
2018-04-28T10:30:42.467Z,57.47
2018-04-28T10:33:11.651Z,48.40
2018-04-28T10:35:40.269Z,112.30
2018-04-28T10:38:08.515Z,141.20
2018-04-28T10:40:36.752Z,102.47
2018-04-28T10:43:05.289Z,98.93
2018-04-28T10:45:33.514Z,77.87
2018-04-28T10:48:01.779Z,79.17
2018-04-28T10:50:30.007Z,97.77
2018-04-28T10:52:58.246Z,85.83
2018-04-28T10:55:27.346Z,81.97
2018-04-28T10:57:55.746Z,83.60
2018-04-28T11:00:23.975Z,111.20
2018-04-28T11:02:52.227Z,77.73
2018-04-28T11:05:20.455Z,82.57
2018-04-28T11:07:48.758Z,67.33
2018-04-28T11:10:16.981Z,66.67
2018-04-28T11:12:45.227Z,57.57
2018-04-28T11:15:13.450Z,77.33
2018-04-28T11:17:41.698Z,89.37
2018-04-28T11:20:09.931Z,88.80
2018-04-28T11:22:38.255Z,108.97
2018-04-28T11:25:06.493Z,149.53
2018-04-28T11:27:34.867Z,141.47
2018-04-28T11:30:03.103Z,115.40
2018-04-28T11:32:31.623Z,108.80
2018-04-28T11:34:59.910Z,114.37
2018-04-28T11:37:28.306Z,108.53
2018-04-28T11:39:56.535Z,101.90
2018-04-28T11:42:24.826Z,110.83
2018-04-28T11:44:53.062Z,103.77
2018-04-28T11:47:21.311Z,101.27
2018-04-28T11:49:49.542Z,104.23
2018-04-28T11:52:17.954Z,89.27
2018-04-28T11:54:46.182Z,88.17
2018-04-28T11:57:14.478Z,86.23
2018-04-28T11:59:42.702Z,83.37
2018-04-28T12:02:11.047Z,81.13
2018-04-28T12:04:39.287Z,90.07
2018-04-28T12:07:08.606Z,77.37
2018-04-28T12:09:36.854Z,79.63
2018-04-28T12:12:05.230Z,76.03
2018-04-28T12:14:33.748Z,83.50
2018-04-28T12:17:02.036Z,82.47
2018-04-28T12:19:30.278Z,71.83
2018-04-28T12:21:58.511Z,82.20
2018-04-28T12:24:26.754Z,76.53
2018-04-28T12:26:54.978Z,71.97
2018-04-28T12:29:23.330Z,77.87
2018-04-28T12:31:51.554Z,70.10
2018-04-28T12:34:19.798Z,67.03
2018-04-28T12:36:48.135Z,68.87
2018-04-28T12:39:16.536Z,71.70
2018-04-28T12:41:44.754Z,67.83
2018-04-28T12:44:12.998Z,66.57
2018-04-28T12:46:41.342Z,68.53
2018-04-28T12:49:09.714Z,68.50
2018-04-28T12:51:37.970Z,67.13
2018-04-28T12:54:06.214Z,65.10
2018-04-28T12:56:34.552Z,65.90
2018-04-28T12:59:02.795Z,59.13
2018-04-28T13:01:31.023Z,59.20
2018-04-28T13:03:59.270Z,67.23
2018-04-28T13:06:27.499Z,62.80
2018-04-28T13:08:55.850Z,60.53
2018-04-28T13:11:24.072Z,56.47
2018-04-28T13:13:52.321Z,63.57
2018-04-28T13:16:20.609Z,58.70
2018-04-28T13:18:48.854Z,54.57
2018-04-28T13:21:17.088Z,56.83
2018-04-28T13:23:45.574Z,54.73
2018-04-28T13:26:13.808Z,51.67
2018-04-28T13:28:42.089Z,54.83
2018-04-28T13:31:10.287Z,55.33
2018-04-28T13:33:38.706Z,55.87
2018-04-28T13:36:07.163Z,53.23
2018-04-28T13:38:35.427Z,53.40
2018-04-28T13:41:03.873Z,57.43
2018-04-28T13:43:32.031Z,50.43
2018-04-28T13:46:00.271Z,55.30
2018-04-28T13:48:28.741Z,55.37
2018-04-28T13:50:57.058Z,48.93
2018-04-28T13:53:25.406Z,49.80
2018-04-28T13:55:53.702Z,49.30
2018-04-28T13:58:21.886Z,51.97
2018-04-28T14:00:50.125Z,52.27
2018-04-28T14:03:18.374Z,49.17
2018-04-28T14:05:46.690Z,49.90
2018-04-28T14:08:15.171Z,47.90
2018-04-28T14:10:43.461Z,51.13
2018-04-28T14:13:11.795Z,50.60
2018-04-28T14:15:40.055Z,46.40
2018-04-28T14:18:08.287Z,46.40
2018-04-28T14:20:36.571Z,49.03
2018-04-28T14:23:04.853Z,50.33
2018-04-28T14:25:33.198Z,41.37
2018-04-28T14:28:01.422Z,44.90
2018-04-28T14:30:29.686Z,46.83
2018-04-28T14:32:57.915Z,44.10
2018-04-28T14:35:26.381Z,44.00
2018-04-28T14:37:54.678Z,44.67
2018-04-28T14:40:22.940Z,42.70
2018-04-28T14:42:51.168Z,39.50
2018-04-28T14:45:19.506Z,42.80
2018-04-28T14:47:47.740Z,42.97
2018-04-28T14:50:16.007Z,41.27
2018-04-28T14:52:44.293Z,37.70
2018-04-28T14:55:12.515Z,40.73
2018-04-28T14:57:40.867Z,40.77
2018-04-28T15:00:09.300Z,36.77
2018-04-28T15:02:37.747Z,37.90
2018-04-28T15:05:06.134Z,37.87
2018-04-28T15:07:34.342Z,38.27
2018-04-28T15:10:02.698Z,38.63
2018-04-28T15:12:31.030Z,35.33
2018-04-28T15:14:59.259Z,38.03
2018-04-28T15:17:27.621Z,38.37
2018-04-28T15:19:55.855Z,37.50
2018-04-28T15:22:24.874Z,32.53
2018-04-28T15:24:53.192Z,33.93
2018-04-28T15:27:21.459Z,33.67
2018-04-28T15:29:49.678Z,38.07
2018-04-28T15:32:17.926Z,35.03
2018-04-28T15:34:46.159Z,35.77
2018-04-28T15:37:14.430Z,34.30
2018-04-28T15:39:42.806Z,31.60
2018-04-28T15:42:11.065Z,33.00
2018-04-28T15:44:39.290Z,33.93
2018-04-28T15:47:07.639Z,33.13
2018-04-28T15:49:36.094Z,31.77
2018-04-28T15:52:04.353Z,32.07
2018-04-28T15:54:32.675Z,34.23
2018-04-28T15:57:01.044Z,27.40
2018-04-28T15:59:29.531Z,33.00
2018-04-28T16:01:57.794Z,33.00
2018-04-28T16:04:26.282Z,34.77
2018-04-28T16:06:54.554Z,31.77
2018-04-28T16:09:22.821Z,27.83
2018-04-28T16:11:51.027Z,30.60
2018-04-28T16:14:19.279Z,32.50
2018-04-28T16:16:47.562Z,26.33
2018-04-28T16:19:15.946Z,29.93
2018-04-28T16:21:44.328Z,31.00
2018-04-28T16:24:12.578Z,30.10
2018-04-28T16:26:41.075Z,27.67
2018-04-28T16:29:09.446Z,30.87
2018-04-28T16:31:37.737Z,30.43
2018-04-28T16:34:06.139Z,30.00
2018-04-28T16:36:34.363Z,26.83
2018-04-28T16:39:02.686Z,29.30
2018-04-28T16:41:31.044Z,29.27
2018-04-28T16:43:59.310Z,28.77
2018-04-28T16:46:27.804Z,28.10
2018-04-28T16:48:56.137Z,26.83
2018-04-28T16:51:24.466Z,27.50
2018-04-28T16:53:52.891Z,26.20
2018-04-28T16:56:21.314Z,25.90
2018-04-28T16:58:49.687Z,27.87
2018-04-28T17:01:17.939Z,25.50
2018-04-28T17:06:18.710Z,28.33
2018-04-28T17:08:47.210Z,26.73
2018-04-28T17:11:15.475Z,25.80
2018-04-28T17:13:43.834Z,26.43
2018-04-28T17:16:12.076Z,27.37
2018-04-28T17:18:40.307Z,24.87
2018-04-28T17:21:08.637Z,26.20
2018-04-28T17:23:37.158Z,24.80
2018-04-28T17:26:05.537Z,23.57
2018-04-28T17:28:33.772Z,25.30
2018-04-28T17:31:02.187Z,24.13
2018-04-28T17:33:30.539Z,23.20
2018-04-28T17:35:58.981Z,24.97
2018-04-28T17:38:27.202Z,27.10
2018-04-28T17:40:55.446Z,24.27
2018-04-28T17:43:23.755Z,24.73
2018-04-28T17:45:52.150Z,24.07
2018-04-28T17:48:20.379Z,22.60
2018-04-28T17:50:48.621Z,24.10
2018-04-28T17:53:17.016Z,25.57
2018-04-28T17:55:45.383Z,21.33
2018-04-28T17:58:13.739Z,24.17
2018-04-28T18:00:42.267Z,20.77
2018-04-28T18:03:10.603Z,23.80
2018-04-28T18:05:38.903Z,23.90
2018-04-28T18:08:07.268Z,22.73
2018-04-28T18:10:36.278Z,24.10
2018-04-28T18:13:04.522Z,22.63
2018-04-28T18:15:32.746Z,24.57
2018-04-28T18:18:01.075Z,21.70
2018-04-28T18:20:29.298Z,22.27
2018-04-28T18:22:57.560Z,21.13
2018-04-28T18:25:25.912Z,18.60
2018-04-28T18:27:54.311Z,22.93
2018-04-28T18:30:22.630Z,22.37
2018-04-28T18:32:50.880Z,18.37
2018-04-28T18:35:19.102Z,19.93
2018-04-28T18:37:47.486Z,21.73
2018-04-28T18:40:15.842Z,21.43
2018-04-28T18:42:44.346Z,23.87
2018-04-28T18:45:12.679Z,23.10
2018-04-28T18:47:41.030Z,20.53
2018-04-28T18:50:09.362Z,19.17
2018-04-28T18:52:37.727Z,20.33
2018-04-28T18:55:05.950Z,19.47
2018-04-28T18:57:34.207Z,21.40
2018-04-28T19:00:02.563Z,22.00
2018-04-28T19:02:31.075Z,21.13
2018-04-28T19:04:59.323Z,19.90
2018-04-28T19:07:27.642Z,18.93
2018-04-28T19:09:55.862Z,19.23
2018-04-28T19:12:24.207Z,21.73
2018-04-28T19:14:52.558Z,24.20
2018-04-28T19:17:21.035Z,20.27
2018-04-28T19:19:49.313Z,19.53
2018-04-28T19:22:17.642Z,19.50
2018-04-28T19:24:45.867Z,22.77
2018-04-28T19:27:14.237Z,22.20
2018-04-28T19:29:42.495Z,18.57
2018-04-28T19:32:10.870Z,18.47
2018-04-28T19:34:39.267Z,18.10
2018-04-28T19:37:07.759Z,18.83
2018-04-28T19:39:36.022Z,20.07
2018-04-28T19:42:04.513Z,16.90
2018-04-28T19:44:32.754Z,20.10
2018-04-28T19:47:01.075Z,18.67
2018-04-28T19:49:29.319Z,18.10
2018-04-28T19:51:58.302Z,18.90
2018-04-28T19:54:27.335Z,17.03
2018-04-28T19:56:56.307Z,21.10
2018-04-28T19:59:25.314Z,16.63
2018-04-28T20:01:53.690Z,19.47
2018-04-28T20:04:21.995Z,19.73
2018-04-28T20:06:50.314Z,17.00
2018-04-28T20:09:18.558Z,18.57
2018-04-28T20:11:46.787Z,16.93
2018-04-28T20:14:15.275Z,15.30
2018-04-28T20:16:43.519Z,15.93
2018-04-28T20:19:11.767Z,16.37
2018-04-28T20:21:40.097Z,14.90
2018-04-28T20:24:20.279Z,16.43
2018-04-28T20:26:48.435Z,16.23
2018-04-28T20:29:16.910Z,18.07
2018-04-28T20:31:45.154Z,15.87
2018-04-28T20:34:13.490Z,18.20
2018-04-28T20:36:41.743Z,14.87
2018-04-28T20:39:10.122Z,16.90
2018-04-28T20:41:38.360Z,16.80
2018-04-28T20:44:06.606Z,16.77
2018-04-28T20:46:34.827Z,17.27
2018-04-28T20:49:03.067Z,17.33
2018-04-28T20:51:31.290Z,17.77
2018-04-28T20:53:59.661Z,15.37
2018-04-28T20:56:28.055Z,15.63
2018-04-28T20:58:56.426Z,17.07
2018-04-28T21:01:24.816Z,18.03
2018-04-28T21:03:53.195Z,15.70
2018-04-28T21:06:21.666Z,17.27
2018-04-28T21:08:49.888Z,16.70
2018-04-28T21:11:18.311Z,14.43
2018-04-28T21:13:46.800Z,15.43
2018-04-28T21:16:15.040Z,16.37
2018-04-28T21:18:43.270Z,13.47
2018-04-28T21:21:11.506Z,16.53
2018-04-28T21:23:39.879Z,15.40
2018-04-28T21:26:08.306Z,14.57
2018-04-28T21:28:36.638Z,14.57
2018-04-28T21:31:04.930Z,16.30
2018-04-28T21:33:33.215Z,14.80
2018-04-28T21:36:01.556Z,16.63
2018-04-28T21:38:29.835Z,16.33
2018-04-28T21:40:58.285Z,16.00
2018-04-28T21:43:26.630Z,14.67
2018-04-28T21:45:54.995Z,15.47
2018-04-28T21:48:23.216Z,13.20
2018-04-28T21:50:51.455Z,14.30
2018-04-28T21:53:19.679Z,14.93
2018-04-28T21:55:47.922Z,12.60
2018-04-28T21:58:16.251Z,13.60
2018-04-28T22:00:44.470Z,12.57
2018-04-28T22:03:12.723Z,14.03
2018-04-28T22:05:40.942Z,15.47
2018-04-28T22:08:09.186Z,12.90
2018-04-28T22:10:37.406Z,14.33
2018-04-28T22:13:05.650Z,14.17
2018-04-28T22:15:34.015Z,14.00
2018-04-28T22:18:02.382Z,14.33
2018-04-28T22:20:30.739Z,13.73
2018-04-28T22:22:59.135Z,12.77
2018-04-28T22:25:27.355Z,13.67
2018-04-28T22:27:55.599Z,13.83
2018-04-28T22:30:23.978Z,13.77
2018-04-28T22:32:52.455Z,12.77
2018-04-28T22:35:20.735Z,12.97
2018-04-28T22:37:49.210Z,14.53
2018-04-28T22:40:17.430Z,13.03
2018-04-28T22:42:45.683Z,13.97
2018-04-28T22:45:14.038Z,14.37
2018-04-28T22:47:42.407Z,12.13
2018-04-28T22:50:11.414Z,12.40
2018-04-28T22:52:39.639Z,13.23
2018-04-28T22:55:07.882Z,12.93
2018-04-28T22:57:36.143Z,13.43
2018-04-28T23:00:04.623Z,11.60
2018-04-28T23:02:32.601Z,12.53
2018-04-28T23:05:01.066Z,11.93
2018-04-28T23:07:29.314Z,14.70
2018-04-28T23:09:57.719Z,11.83
2018-04-28T23:12:26.103Z,12.97
2018-04-28T23:14:54.346Z,14.20
2018-04-28T23:17:22.569Z,11.80
2018-04-28T23:19:50.954Z,11.00
2018-04-28T23:22:19.214Z,13.30
2018-04-28T23:24:47.459Z,12.57
2018-04-28T23:27:16.443Z,12.27
2018-04-28T23:29:44.738Z,11.60
2018-04-28T23:32:13.135Z,14.20
2018-04-28T23:34:41.450Z,11.20
2018-04-28T23:37:09.682Z,13.20
2018-04-28T23:39:38.019Z,12.80
2018-04-28T23:42:06.239Z,10.73
2018-04-28T23:44:34.479Z,12.10
2018-04-28T23:47:03.466Z,11.80
2018-04-28T23:49:31.706Z,11.90
2018-04-28T23:51:59.951Z,13.17
2018-04-28T23:54:28.170Z,11.60
2018-04-28T23:56:56.410Z,10.43
2018-04-28T23:59:24.779Z,12.40
